Time;durP1;ratioP1;P1;durP2;ratioP2;P2;SDS_P1;SDS_P2;PMS_P1;PMS_P2;Temp;Humidity;BMP_temperature;BMP_pressure;BME280_temperature;BME280_humidity;BME280_pressure;Samples;Min_cycle;Max_cycle;Signal;HPM_P1;HPM_P2
2022/07/11 00:00:07;;;;;;;3.45;1.73;;;18.10;66.80;;;;;;4977122;28;20412;-66
2022/07/11 00:02:33;;;;;;;3.78;1.50;;;18.10;66.80;;;;;;4973339;28;20046;-66
2022/07/11 00:04:59;;;;;;;5.60;1.75;;;18.10;66.80;;;;;;4976714;28;20034;-66
2022/07/11 00:07:24;;;;;;;4.78;2.10;;;18.10;66.80;;;;;;4992128;28;20077;-66
2022/07/11 00:09:50;;;;;;;3.85;1.92;;;18.10;66.90;;;;;;4987398;28;20397;-66
2022/07/11 00:12:16;;;;;;;6.20;2.42;;;18.10;66.80;;;;;;4992034;28;20537;-69
2022/07/11 00:14:42;;;;;;;2.70;1.60;;;18.10;66.80;;;;;;4984614;28;20057;-69
2022/07/11 00:17:08;;;;;;;5.38;2.08;;;18.10;66.90;;;;;;4989354;28;20101;-69
2022/07/11 00:19:36;;;;;;;4.28;1.52;;;18.00;66.80;;;;;;4987749;28;20047;-69
2022/07/11 00:22:02;;;;;;;4.88;1.50;;;18.00;66.80;;;;;;4989377;28;20490;-69
2022/07/11 00:24:29;;;;;;;4.03;1.70;;;18.00;66.80;;;;;;4985681;28;20468;-69
2022/07/11 00:26:55;;;;;;;4.95;1.58;;;18.00;66.70;;;;;;4986985;28;20050;-69
2022/07/11 00:29:20;;;;;;;6.60;2.20;;;18.00;66.80;;;;;;4986315;28;20142;-70
2022/07/11 00:31:46;;;;;;;3.92;1.80;;;18.00;66.70;;;;;;4991843;28;20413;-70
2022/07/11 00:34:12;;;;;;;2.05;1.25;;;18.00;66.60;;;;;;4970116;28;20038;-70
2022/07/11 00:36:38;;;;;;;5.10;1.58;;;18.00;66.60;;;;;;4985511;28;20128;-69
2022/07/11 00:39:03;;;;;;;3.05;1.30;;;18.00;66.60;;;;;;4993355;28;20117;-69
2022/07/11 00:41:29;;;;;;;4.15;1.60;;;18.00;66.70;;;;;;4993115;28;20053;-69
2022/07/11 00:43:57;;;;;;;3.83;1.50;;;18.00;66.60;;;;;;4994504;28;20054;-69
2022/07/11 00:46:24;;;;;;;4.75;1.92;;;18.00;66.60;;;;;;4987189;28;20455;-66
2022/07/11 00:48:51;;;;;;;4.20;1.85;;;17.90;66.60;;;;;;4991924;28;20114;-66
2022/07/11 00:51:22;;;;;;;2.33;1.50;;;17.90;66.60;;;;;;4991053;28;20039;-66
2022/07/11 00:53:53;;;;;;;2.20;1.27;;;17.90;66.60;;;;;;4987176;28;20050;-66
2022/07/11 00:56:26;;;;;;;4.05;1.90;;;17.90;66.50;;;;;;4990823;28;20054;-66
2022/07/11 00:58:54;;;;;;;2.67;1.80;;;17.90;66.50;;;;;;4990354;28;20038;-66
2022/07/11 01:01:20;;;;;;;3.45;1.88;;;17.90;66.60;;;;;;4990664;28;20294;-66
2022/07/11 01:03:46;;;;;;;3.33;1.70;;;17.90;66.70;;;;;;4991874;28;20042;-66
2022/07/11 01:06:12;;;;;;;3.50;1.80;;;17.90;66.60;;;;;;4991636;28;20046;-66
2022/07/11 01:08:39;;;;;;;2.92;1.70;;;17.90;66.60;;;;;;4991036;28;20042;-66
2022/07/11 01:11:10;;;;;;;2.35;1.30;;;17.90;66.60;;;;;;4986875;28;20494;-67
2022/07/11 01:13:35;;;;;;;6.07;1.80;;;17.90;66.60;;;;;;4983643;28;20458;-66
2022/07/11 01:16:16;;;;;;;2.45;1.75;;;17.90;66.50;;;;;;4983792;28;20117;-67
2022/07/11 01:18:47;;;;;;;3.80;1.60;;;17.90;66.40;;;;;;4982764;28;20038;-66
2022/07/11 01:21:45;;;;;;;4.78;1.85;;;17.90;66.50;;;;;;4991364;28;20117;-66
2022/07/11 01:24:11;;;;;;;2.92;1.63;;;17.90;66.50;;;;;;4983238;28;20505;-66
2022/07/11 01:26:37;;;;;;;2.70;1.60;;;17.80;66.60;;;;;;4966800;28;20045;-66
2022/07/11 01:29:07;;;;;;;3.08;1.73;;;17.80;66.60;;;;;;4991430;28;20509;-66
2022/07/11 01:31:33;;;;;;;2.92;1.70;;;17.80;66.60;;;;;;4989714;28;20609;-66
2022/07/11 01:33:58;;;;;;;3.30;1.58;;;17.80;66.60;;;;;;4987444;28;20050;-66
2022/07/11 01:36:24;;;;;;;2.45;1.60;;;17.80;66.60;;;;;;4983023;28;20050;-66
2022/07/11 01:38:50;;;;;;;3.05;1.42;;;17.80;66.60;;;;;;4972000;28;20034;-66
2022/07/11 01:41:15;;;;;;;2.78;1.65;;;17.80;66.60;;;;;;4979990;28;20073;-66
2022/07/11 01:43:41;;;;;;;3.17;1.55;;;17.80;66.60;;;;;;4983746;28;20621;-67
2022/07/11 01:46:07;;;;;;;2.45;1.67;;;17.90;66.60;;;;;;4991453;28;20131;-67
2022/07/11 01:48:32;;;;;;;2.63;1.73;;;17.80;66.60;;;;;;4989847;28;20035;-66
2022/07/11 01:50:58;;;;;;;2.22;1.42;;;17.80;66.50;;;;;;4968320;28;20038;-66
2022/07/11 01:53:24;;;;;;;4.72;2.25;;;17.80;66.60;;;;;;4990713;28;20046;-67
2022/07/11 01:55:50;;;;;;;4.13;1.70;;;17.80;66.70;;;;;;4983902;28;20047;-67
2022/07/11 01:58:16;;;;;;;4.95;1.92;;;17.80;66.70;;;;;;4974329;28;20051;-67
2022/07/11 02:00:42;;;;;;;3.10;1.45;;;17.80;66.80;;;;;;4990769;28;20046;-67
2022/07/11 02:03:08;;;;;;;3.70;1.88;;;17.80;66.80;;;;;;4990401;28;20050;-68
2022/07/11 02:05:34;;;;;;;4.50;2.10;;;17.80;66.90;;;;;;4991031;28;20047;-67
2022/07/11 02:08:12;;;;;;;3.92;1.88;;;17.80;67.00;;;;;;4983326;28;20398;-67
2022/07/11 02:10:44;;;;;;;5.03;1.95;;;17.80;67.10;;;;;;4982507;28;20073;-67
2022/07/11 02:13:11;;;;;;;3.33;1.50;;;17.80;67.20;;;;;;4984215;28;20038;-67
2022/07/11 02:15:38;;;;;;;2.17;1.45;;;17.80;67.30;;;;;;4981821;28;20076;-67
2022/07/11 02:18:04;;;;;;;2.60;1.80;;;17.70;67.20;;;;;;4989135;28;20481;-67
2022/07/11 02:20:29;;;;;;;3.22;1.40;;;17.70;67.10;;;;;;4986806;28;20503;-67
2022/07/11 02:22:56;;;;;;;2.05;1.58;;;17.70;67.20;;;;;;4966655;28;20063;-67
2022/07/11 02:25:22;;;;;;;2.47;1.50;;;17.70;67.20;;;;;;4991041;28;20093;-67
2022/07/11 02:27:48;;;;;;;2.60;1.70;;;17.70;67.20;;;;;;4990974;28;20046;-67
2022/07/11 02:30:14;;;;;;;3.20;1.52;;;17.70;67.20;;;;;;4982379;28;20070;-67
2022/07/11 02:32:39;;;;;;;3.53;1.63;;;17.70;67.30;;;;;;4991986;28;20034;-67
2022/07/11 02:35:06;;;;;;;5.10;1.98;;;17.70;67.30;;;;;;4989035;28;20038;-67
2022/07/11 02:37:31;;;;;;;3.67;2.00;;;17.70;67.50;;;;;;4978078;28;20081;-67
2022/07/11 02:39:57;;;;;;;3.10;1.60;;;17.70;67.70;;;;;;4992813;28;20070;-67
2022/07/11 02:42:23;;;;;;;2.13;1.63;;;17.70;67.80;;;;;;4998127;28;20490;-67
2022/07/11 02:44:49;;;;;;;3.22;1.75;;;17.70;67.90;;;;;;5012425;28;20049;-67
2022/07/11 02:47:15;;;;;;;2.47;1.40;;;17.70;68.00;;;;;;5007334;28;20124;-67
2022/07/11 02:49:41;;;;;;;3.95;2.35;;;17.70;68.00;;;;;;4990785;28;20030;-67
2022/07/11 02:52:07;;;;;;;5.35;1.67;;;17.70;68.20;;;;;;4992752;28;20068;-67
2022/07/11 02:54:33;;;;;;;6.80;2.33;;;17.70;68.30;;;;;;5000787;28;20499;-67
2022/07/11 02:56:58;;;;;;;2.92;1.50;;;17.60;68.30;;;;;;5017361;28;20136;-67
2022/07/11 02:59:24;;;;;;;4.47;1.58;;;17.70;68.40;;;;;;5029465;28;20144;-67
2022/07/11 03:01:50;;;;;;;3.97;1.70;;;17.60;68.30;;;;;;5006078;28;20130;-67
2022/07/11 03:04:16;;;;;;;2.80;1.77;;;17.60;68.40;;;;;;5014693;28;20052;-67
2022/07/11 03:06:42;;;;;;;3.00;1.75;;;17.60;68.50;;;;;;5012696;28;20052;-68
2022/07/11 03:09:09;;;;;;;3.58;2.00;;;17.60;68.60;;;;;;5031643;28;20041;-67
2022/07/11 03:11:35;;;;;;;4.20;2.00;;;17.60;68.60;;;;;;5013211;28;20402;-66
2022/07/11 03:14:01;;;;;;;4.63;1.80;;;17.60;68.60;;;;;;5009863;28;20120;-66
2022/07/11 03:16:28;;;;;;;4.22;2.00;;;17.60;68.50;;;;;;5007781;28;20046;-66
2022/07/11 03:18:53;;;;;;;4.88;2.53;;;17.60;68.50;;;;;;5017239;28;20083;-66
2022/07/11 03:21:19;;;;;;;3.50;2.08;;;17.60;68.50;;;;;;5013331;28;20485;-66
2022/07/11 03:23:45;;;;;;;3.00;1.55;;;17.60;68.40;;;;;;4989800;28;20148;-66
2022/07/11 03:26:11;;;;;;;3.10;1.98;;;17.60;68.30;;;;;;5013857;28;20044;-66
2022/07/11 03:28:37;;;;;;;3.75;2.40;;;17.60;68.50;;;;;;5016577;28;20053;-66
2022/07/11 03:31:02;;;;;;;5.20;2.33;;;17.60;68.90;;;;;;5014147;28;20040;-66
2022/07/11 03:33:28;;;;;;;7.03;2.80;;;17.60;69.10;;;;;;5008041;28;20042;-66
2022/07/11 03:35:54;;;;;;;5.53;2.55;;;17.60;69.20;;;;;;5012674;28;20086;-66
2022/07/11 03:38:20;;;;;;;5.40;2.38;;;17.60;69.30;;;;;;5012851;28;20076;-66
2022/07/11 03:40:47;;;;;;;5.10;2.42;;;17.60;69.30;;;;;;5013872;28;20045;-66
2022/07/11 03:43:14;;;;;;;4.65;2.58;;;17.60;69.40;;;;;;5010877;28;20049;-66
2022/07/11 03:45:40;;;;;;;2.95;2.25;;;17.60;69.50;;;;;;5015849;28;20042;-66
2022/07/11 03:48:07;;;;;;;4.47;2.47;;;17.50;69.40;;;;;;5016507;28;20570;-66
2022/07/11 03:50:33;;;;;;;3.60;2.33;;;17.50;69.40;;;;;;5007887;28;20176;-66
2022/07/11 03:52:58;;;;;;;6.97;2.95;;;17.60;69.40;;;;;;4998797;28;20041;-66
2022/07/11 03:55:24;;;;;;;4.60;2.92;;;17.60;69.80;;;;;;5013715;28;20535;-66
2022/07/11 03:57:50;;;;;;;3.97;2.88;;;17.50;69.90;;;;;;5002040;28;20052;-66
2022/07/11 04:00:16;;;;;;;4.03;2.65;;;17.50;70.10;;;;;;5016213;28;20135;-66
2022/07/11 04:02:42;;;;;;;3.63;2.63;;;17.50;70.20;;;;;;5015714;28;20074;-66
2022/07/11 04:05:08;;;;;;;3.08;2.28;;;17.50;70.10;;;;;;5008129;28;20069;-66
2022/07/11 04:07:34;;;;;;;5.40;2.17;;;17.60;70.30;;;;;;5008328;28;20049;-66
2022/07/11 04:09:59;;;;;;;2.25;1.80;;;17.50;70.30;;;;;;5011814;28;20041;-66
2022/07/11 04:12:25;;;;;;;2.95;2.00;;;17.50;70.40;;;;;;4998893;28;20045;-66
2022/07/11 04:14:51;;;;;;;3.92;2.20;;;17.50;70.50;;;;;;5013019;28;20480;-66
2022/07/11 04:17:16;;;;;;;3.60;2.10;;;17.50;70.60;;;;;;5012250;28;20051;-65
2022/07/11 04:19:42;;;;;;;3.25;1.92;;;17.50;70.60;;;;;;5008056;28;20124;-66
2022/07/11 04:22:08;;;;;;;2.80;1.80;;;17.50;70.60;;;;;;4998547;28;20488;-67
2022/07/11 04:24:34;;;;;;;3.78;2.50;;;17.50;70.70;;;;;;4998841;28;20045;-66
2022/07/11 04:27:00;;;;;;;3.92;2.00;;;17.50;70.60;;;;;;5008794;28;20100;-67
2022/07/11 04:29:26;;;;;;;2.28;1.60;;;17.50;70.70;;;;;;5015823;28;20124;-67
2022/07/11 04:31:52;;;;;;;2.72;1.77;;;17.50;71.30;;;;;;5014119;28;20443;-66
2022/07/11 04:34:18;;;;;;;3.30;1.45;;;17.50;70.80;;;;;;5014369;28;20041;-67
2022/07/11 04:36:44;;;;;;;2.63;1.75;;;17.50;70.90;;;;;;5025675;28;20092;-67
2022/07/11 04:39:10;;;;;;;2.35;1.58;;;17.50;71.10;;;;;;5004398;28;20053;-65
2022/07/11 04:41:36;;;;;;;2.88;1.33;;;17.50;71.10;;;;;;5003994;28;20111;-65
2022/07/11 04:44:01;;;;;;;2.08;1.48;;;17.50;71.20;;;;;;5013199;28;20062;-65
2022/07/11 04:46:29;;;;;;;2.35;1.23;;;17.50;71.10;;;;;;5015249;28;20037;-65
2022/07/11 04:48:55;;;;;;;1.70;1.02;;;17.50;71.20;;;;;;5027307;28;20397;-65
2022/07/11 04:51:20;;;;;;;2.42;1.25;;;17.50;71.40;;;;;;5005192;28;20045;-66
2022/07/11 04:53:46;;;;;;;2.35;1.00;;;17.50;71.40;;;;;;5011381;28;20037;-66
2022/07/11 04:56:13;;;;;;;2.97;1.42;;;17.50;71.60;;;;;;4995705;28;21376;-65
2022/07/11 04:58:38;;;;;;;1.67;0.85;;;17.50;71.60;;;;;;5026820;28;20033;-66
2022/07/11 05:01:04;;;;;;;1.23;0.75;;;17.50;71.60;;;;;;4990246;28;20037;-66
2022/07/11 05:03:32;;;;;;;2.10;0.80;;;17.50;71.60;;;;;;4992863;28;20044;-65
2022/07/11 05:05:57;;;;;;;1.08;0.90;;;17.50;71.60;;;;;;5006556;28;20057;-69
2022/07/11 05:08:23;;;;;;;2.60;0.93;;;17.50;71.70;;;;;;5010469;28;20042;-69
2022/07/11 05:10:49;;;;;;;2.22;0.80;;;17.50;71.80;;;;;;5002264;28;20043;-70
2022/07/11 05:13:15;;;;;;;1.83;0.80;;;17.50;71.80;;;;;;5004355;28;20091;-69
2022/07/11 05:15:41;;;;;;;2.13;0.80;;;17.50;71.80;;;;;;5014821;28;20041;-66
2022/07/11 05:18:07;;;;;;;1.45;0.70;;;17.50;72.00;;;;;;5023008;28;20099;-66
2022/07/11 05:20:32;;;;;;;1.80;0.65;;;17.50;72.00;;;;;;5014585;28;20052;-66
2022/07/11 05:22:58;;;;;;;1.20;0.80;;;17.60;72.20;;;;;;5006051;28;20397;-66
2022/07/11 05:25:25;;;;;;;2.15;0.63;;;17.50;72.10;;;;;;5006586;28;20049;-66
2022/07/11 05:27:51;;;;;;;1.27;0.60;;;17.60;72.10;;;;;;5012936;28;20043;-66
2022/07/11 05:30:17;;;;;;;1.30;0.60;;;17.60;72.20;;;;;;4997799;28;20045;-66
2022/07/11 05:32:42;;;;;;;1.23;0.43;;;17.60;72.40;;;;;;5009484;28;20034;-66
2022/07/11 05:35:09;;;;;;;1.95;0.73;;;17.60;72.50;;;;;;4994136;28;20160;-66
2022/07/11 05:37:35;;;;;;;1.50;0.77;;;17.70;72.60;;;;;;5011063;28;20084;-66
2022/07/11 05:40:01;;;;;;;2.05;0.70;;;17.70;72.60;;;;;;5003190;28;20042;-66
2022/07/11 05:42:27;;;;;;;1.10;0.70;;;17.70;72.40;;;;;;5010355;28;20049;-66
2022/07/11 05:44:53;;;;;;;1.08;0.60;;;17.80;72.40;;;;;;5008568;28;20413;-66
2022/07/11 05:47:18;;;;;;;2.45;0.80;;;17.80;72.30;;;;;;5029710;28;20053;-66
2022/07/11 05:49:44;;;;;;;1.23;0.60;;;17.80;72.30;;;;;;5024004;28;20366;-65
2022/07/11 05:52:10;;;;;;;1.10;0.70;;;17.80;72.30;;;;;;5013760;28;20042;-65
2022/07/11 05:54:36;;;;;;;0.73;0.43;;;17.90;72.30;;;;;;4996250;28;20041;-68
2022/07/11 05:57:03;;;;;;;2.40;0.90;;;17.90;72.30;;;;;;5010125;28;20119;-68
2022/07/11 05:59:30;;;;;;;1.30;0.80;;;17.90;72.30;;;;;;5028451;28;20041;-68
2022/07/11 06:01:56;;;;;;;2.10;0.85;;;17.90;72.20;;;;;;5023139;28;20041;-69
2022/07/11 06:04:21;;;;;;;2.05;0.75;;;17.90;72.00;;;;;;5013846;28;20068;-69
2022/07/11 06:06:47;;;;;;;0.93;0.70;;;17.90;71.90;;;;;;5004126;28;20470;-69
2022/07/11 06:09:14;;;;;;;0.70;0.50;;;18.00;71.90;;;;;;5010182;28;20432;-66
2022/07/11 06:11:40;;;;;;;0.43;0.40;;;18.00;71.70;;;;;;5017281;28;20036;-66
2022/07/11 06:14:05;;;;;;;0.75;0.60;;;18.00;71.50;;;;;;4996225;28;20101;-66
2022/07/11 06:16:31;;;;;;;1.08;0.50;;;18.00;71.50;;;;;;5011181;28;20033;-65
2022/07/11 06:18:58;;;;;;;2.35;0.70;;;18.00;71.80;;;;;;5009144;28;20484;-65
2022/07/11 06:21:24;;;;;;;1.30;0.45;;;18.00;71.80;;;;;;4985284;28;20049;-68
2022/07/11 06:23:50;;;;;;;1.40;0.80;;;18.00;71.80;;;;;;5005749;28;20049;-68
2022/07/11 06:26:16;;;;;;;1.73;0.77;;;18.00;71.90;;;;;;4999271;28;20505;-68
2022/07/11 06:28:42;;;;;;;2.35;0.50;;;18.00;71.90;;;;;;5042533;28;20060;-68
2022/07/11 06:31:08;;;;;;;1.10;0.40;;;18.10;71.90;;;;;;5018615;28;20041;-68
2022/07/11 06:33:34;;;;;;;1.42;0.60;;;18.10;72.00;;;;;;5017643;28;20071;-68
2022/07/11 06:36:01;;;;;;;1.13;0.50;;;18.10;71.90;;;;;;5017968;28;20077;-68
2022/07/11 06:38:28;;;;;;;1.05;0.47;;;18.10;72.00;;;;;;5036939;28;20048;-69
2022/07/11 06:40:54;;;;;;;2.00;0.90;;;18.20;72.40;;;;;;5051533;28;20335;-68
2022/07/11 06:43:20;;;;;;;3.00;0.60;;;18.20;72.30;;;;;;5044109;28;20557;-68
2022/07/11 06:45:46;;;;;;;0.85;0.50;;;18.20;72.30;;;;;;5038121;28;20053;-68
2022/07/11 06:48:12;;;;;;;1.38;0.50;;;18.20;72.50;;;;;;5030844;28;20508;-68
2022/07/11 06:50:38;;;;;;;2.53;0.70;;;18.20;72.50;;;;;;5017588;28;20056;-68
2022/07/11 06:53:03;;;;;;;0.70;0.30;;;18.30;72.50;;;;;;5035450;28;20147;-68
2022/07/11 06:55:30;;;;;;;0.90;0.43;;;18.30;72.40;;;;;;5018294;28;20358;-68
2022/07/11 06:57:56;;;;;;;0.60;0.22;;;18.30;72.30;;;;;;5018037;28;20060;-68
2022/07/11 07:00:21;;;;;;;2.28;0.52;;;18.40;72.30;;;;;;5018533;28;20045;-68
2022/07/11 07:02:47;;;;;;;1.08;0.50;;;18.40;72.40;;;;;;5032327;28;20079;-68
2022/07/11 07:05:13;;;;;;;0.73;0.20;;;18.40;72.30;;;;;;5017329;28;20136;-68
2022/07/11 07:07:38;;;;;;;0.30;0.30;;;18.50;72.80;;;;;;5018079;28;20164;-68
2022/07/11 07:10:05;;;;;;;1.42;0.30;;;18.50;72.40;;;;;;5017819;28;20139;-68
2022/07/11 07:12:31;;;;;;;0.73;0.30;;;18.50;72.50;;;;;;5017860;28;20041;-68
2022/07/11 07:14:59;;;;;;;0.10;0.10;;;18.50;72.70;;;;;;5017772;28;20489;-68
2022/07/11 07:17:25;;;;;;;1.30;0.30;;;18.60;72.80;;;;;;5018032;28;20424;-68
2022/07/11 07:19:51;;;;;;;0.22;0.20;;;18.60;72.70;;;;;;5017795;28;20045;-68
2022/07/11 07:22:16;;;;;;;1.40;0.38;;;18.60;72.70;;;;;;5017633;28;20051;-68
2022/07/11 07:24:43;;;;;;;0.60;0.30;;;18.70;72.70;;;;;;5017593;28;20068;-68
2022/07/11 07:27:08;;;;;;;0.90;0.38;;;18.70;72.50;;;;;;5017761;28;20073;-68
2022/07/11 07:29:34;;;;;;;0.88;0.22;;;18.70;72.30;;;;;;5001345;28;20119;-68
2022/07/11 07:32:00;;;;;;;0.55;0.35;;;18.80;72.20;;;;;;5017461;28;20045;-68
2022/07/11 07:34:26;;;;;;;0.35;0.30;;;18.80;72.10;;;;;;5017249;28;20052;-68
2022/07/11 07:36:51;;;;;;;0.65;0.30;;;18.90;72.00;;;;;;5009613;28;20049;-68
2022/07/11 07:39:17;;;;;;;0.35;0.20;;;18.90;71.70;;;;;;5006377;28;20053;-68
2022/07/11 07:41:43;;;;;;;1.15;0.50;;;18.90;71.60;;;;;;5017230;28;20124;-68
2022/07/11 07:44:09;;;;;;;1.27;0.40;;;18.90;71.40;;;;;;5017095;28;20536;-68
2022/07/11 07:46:35;;;;;;;1.27;0.25;;;18.90;71.30;;;;;;5012593;28;20559;-68
2022/07/11 07:49:00;;;;;;;0.93;0.43;;;18.90;71.30;;;;;;5013680;28;20052;-68
2022/07/11 07:51:26;;;;;;;0.60;0.30;;;18.90;71.40;;;;;;5014340;28;20045;-68
2022/07/11 07:53:52;;;;;;;1.08;0.30;;;18.90;71.60;;;;;;5034764;28;20107;-68
2022/07/11 07:56:19;;;;;;;0.47;0.32;;;19.00;71.80;;;;;;5035020;28;20508;-68
2022/07/11 07:58:45;;;;;;;0.60;0.30;;;19.00;71.60;;;;;;5016266;28;20061;-67
2022/07/11 08:03:56;;;;;;;1.33;0.43;;;19.10;71.60;;;;;;5028819;28;20052;-67
2022/07/11 08:06:21;;;;;;;1.23;0.40;;;19.10;71.10;;;;;;5000438;28;20504;-67
2022/07/11 08:08:47;;;;;;;2.55;0.20;;;19.20;70.80;;;;;;5016743;28;20045;-68
2022/07/11 08:11:13;;;;;;;0.98;0.20;;;19.20;70.60;;;;;;5008794;28;20052;-68
2022/07/11 08:13:39;;;;;;;0.80;0.20;;;19.20;70.50;;;;;;5031587;28;20443;-67
2022/07/11 08:16:06;;;;;;;1.05;0.30;;;19.30;70.40;;;;;;5018718;28;20038;-67
2022/07/11 08:18:33;;;;;;;1.45;0.38;;;19.30;70.80;;;;;;5016516;28;20072;-67
2022/07/11 08:20:59;;;;;;;1.50;0.30;;;19.30;70.90;;;;;;5034147;28;20431;-67
2022/07/11 08:23:25;;;;;;;1.05;0.30;;;19.40;71.00;;;;;;5016805;28;20393;-67
2022/07/11 08:25:51;;;;;;;0.63;0.28;;;19.50;70.90;;;;;;5016431;28;20045;-67
2022/07/11 08:28:17;;;;;;;1.00;0.50;;;19.50;70.80;;;;;;5015827;28;20045;-67
2022/07/11 08:30:43;;;;;;;0.98;0.40;;;19.60;70.90;;;;;;5016599;28;20487;-68
2022/07/11 08:33:09;;;;;;;0.55;0.38;;;19.80;71.20;;;;;;5016449;28;20128;-69
2022/07/11 08:35:35;;;;;;;0.98;0.30;;;19.90;70.80;;;;;;5015588;28;20124;-70
2022/07/11 08:38:01;;;;;;;0.57;0.30;;;20.00;70.20;;;;;;5000412;28;20127;-68
2022/07/11 08:40:27;;;;;;;0.90;0.40;;;20.10;69.40;;;;;;5033791;28;20546;-68
2022/07/11 08:42:55;;;;;;;0.63;0.32;;;20.20;68.70;;;;;;5033187;28;20120;-68
2022/07/11 08:45:28;;;;;;;0.43;0.30;;;20.20;68.30;;;;;;5015970;28;20045;-68
2022/07/11 08:47:54;;;;;;;0.57;0.40;;;20.30;68.00;;;;;;4999810;28;20044;-70
2022/07/11 08:50:22;;;;;;;1.38;0.30;;;20.30;67.90;;;;;;5015674;28;20284;-70
2022/07/11 08:52:48;;;;;;;0.60;0.30;;;20.30;68.00;;;;;;5015968;28;20044;-66
2022/07/11 08:55:13;;;;;;;0.55;0.28;;;20.40;68.30;;;;;;5015605;28;20034;-67
2022/07/11 08:57:40;;;;;;;0.60;0.20;;;20.50;67.60;;;;;;5012364;28;20053;-67
2022/07/11 09:00:09;;;;;;;0.95;0.30;;;20.50;67.50;;;;;;5033317;28;20388;-66
2022/07/11 09:02:35;;;;;;;0.43;0.10;;;20.60;66.90;;;;;;5015519;28;20388;-66
2022/07/11 09:05:05;;;;;;;0.10;0.10;;;20.60;66.60;;;;;;5015410;28;20036;-66
2022/07/11 09:07:32;;;;;;;0.52;0.10;;;20.70;66.40;;;;;;5015756;28;20042;-67
2022/07/11 09:09:58;;;;;;;0.10;0.10;;;20.70;65.80;;;;;;5014976;28;20503;-67
2022/07/11 09:12:23;;;;;;;0.15;0.10;;;20.80;65.80;;;;;;5015200;28;20033;-67
2022/07/11 09:14:51;;;;;;;0.17;0.10;;;20.80;65.30;;;;;;5015021;28;20175;-69
2022/07/11 09:17:28;;;;;;;0.50;0.20;;;20.80;64.30;;;;;;5015336;28;20103;-71
2022/07/11 09:19:54;;;;;;;0.20;0.10;;;20.90;63.30;;;;;;5015632;28;20504;-70
2022/07/11 09:25:22;;;;;;;;;;;20.90;63.60;;;;;;5015784;28;20132;-70
2022/07/11 09:28:01;;;;;;;0.60;0.30;;;20.90;64.30;;;;;;4995917;28;20388;-71
2022/07/11 09:30:29;;;;;;;0.35;0.30;;;20.90;64.40;;;;;;5001001;28;20485;-71
2022/07/11 09:33:00;;;;;;;0.30;0.20;;;20.90;64.20;;;;;;5005308;28;20073;-69
2022/07/11 09:35:38;;;;;;;0.63;0.17;;;20.90;63.70;;;;;;5015923;28;20037;-68
2022/07/11 09:38:05;;;;;;;0.55;0.20;;;21.00;63.90;;;;;;5006805;28;20481;-69
2022/07/11 09:40:31;;;;;;;0.77;0.15;;;21.00;63.70;;;;;;5006537;28;20512;-69
2022/07/11 09:42:59;;;;;;;0.52;0.10;;;21.00;63.50;;;;;;5007054;28;20061;-69
2022/07/11 09:45:27;;;;;;;0.55;0.30;;;21.10;63.40;;;;;;5006846;28;20049;-68
2022/07/11 09:47:56;;;;;;;1.33;0.30;;;21.10;63.90;;;;;;5006734;28;20103;-69
2022/07/11 09:50:27;;;;;;;0.57;0.10;;;21.10;63.60;;;;;;5006474;28;20034;-68
2022/07/11 09:53:06;;;;;;;0.22;0.15;;;21.10;63.40;;;;;;5023987;28;20711;-68
2022/07/11 09:55:34;;;;;;;0.50;0.10;;;21.20;63.60;;;;;;5006771;28;20069;-68
2022/07/11 09:58:06;;;;;;;0.80;0.10;;;21.10;63.70;;;;;;5007081;28;20059;-68
2022/07/11 10:00:33;;;;;;;1.00;0.20;;;21.20;63.40;;;;;;5006247;28;20055;-68
2022/07/11 10:03:00;;;;;;;0.10;0.10;;;21.20;63.20;;;;;;4990357;28;20743;-68
2022/07/11 10:05:26;;;;;;;0.63;0.10;;;21.20;63.30;;;;;;5006452;28;20123;-68
2022/07/11 10:07:51;;;;;;;0.45;0.20;;;21.30;63.50;;;;;;4989440;28;20050;-68
2022/07/11 10:10:17;;;;;;;0.28;0.10;;;21.30;63.30;;;;;;5006752;28;20076;-68
2022/07/11 10:12:46;;;;;;;0.57;0.17;;;21.40;63.00;;;;;;5006315;28;21063;-68
2022/07/11 10:15:15;;;;;;;0.10;0.10;;;21.40;62.80;;;;;;5007030;28;20087;-68
2022/07/11 10:18:00;;;;;;;0.20;0.10;;;21.50;62.50;;;;;;5006630;28;20374;-68
2022/07/11 10:20:28;;;;;;;;;;;21.50;62.20;;;;;;5007070;28;20038;-68
2022/07/11 10:23:12;;;;;;;0.35;0.22;;;21.50;62.70;;;;;;5006262;28;19921;-68
2022/07/11 10:26:00;;;;;;;0.30;0.10;;;21.50;62.30;;;;;;5006767;28;20423;-68
2022/07/11 10:29:04;;;;;;;0.30;0.00;;;21.60;62.10;;;;;;5006471;28;20048;-69
2022/07/11 10:31:30;;;;;;;0.30;0.10;;;21.60;62.10;;;;;;5004235;28;20057;-69
2022/07/11 10:34:03;;;;;;;0.73;0.10;;;21.70;62.00;;;;;;4990068;28;20518;-69
2022/07/11 10:36:30;;;;;;;1.77;0.20;;;21.80;62.10;;;;;;5006075;28;20049;-68
2022/07/11 10:39:14;;;;;;;1.05;0.20;;;21.80;61.50;;;;;;5006937;28;20072;-68
2022/07/11 10:41:40;;;;;;;0.45;0.20;;;21.80;61.60;;;;;;5005617;28;20116;-68
2022/07/11 10:44:07;;;;;;;0.30;0.00;;;21.80;61.50;;;;;;5005993;28;20211;-68
2022/07/11 10:46:34;;;;;;;0.35;0.10;;;21.80;61.30;;;;;;5005750;28;20050;-68
2022/07/11 10:49:15;;;;;;;1.13;0.10;;;21.80;60.10;;;;;;5006893;28;20112;-68
2022/07/11 10:51:44;;;;;;;0.40;0.10;;;21.80;60.90;;;;;;5007863;28;20049;-68
2022/07/11 10:54:18;;;;;;;0.15;0.00;;;21.80;61.00;;;;;;5006648;28;20820;-68
2022/07/11 10:56:56;;;;;;;0.60;0.20;;;21.80;61.00;;;;;;5010287;28;20049;-69
2022/07/11 10:59:22;;;;;;;0.25;0.05;;;21.90;61.20;;;;;;5008844;28;20093;-69
2022/07/11 11:02:12;;;;;;;0.75;0.25;;;21.90;60.70;;;;;;5009741;28;20447;-69
2022/07/11 11:04:47;;;;;;;0.98;0.10;;;22.00;61.00;;;;;;5025792;28;20049;-69
2022/07/11 11:07:31;;;;;;;0.00;0.00;;;22.10;60.90;;;;;;5008467;28;20083;-69
2022/07/11 11:09:58;;;;;;;0.22;0.20;;;22.10;60.80;;;;;;5009946;28;20052;-69
2022/07/11 11:13:04;;;;;;;0.20;0.20;;;22.10;60.70;;;;;;4991872;28;20084;-69
2022/07/11 11:15:49;;;;;;;0.65;0.20;;;22.20;60.60;;;;;;5009543;28;20182;-69
2022/07/11 11:18:24;;;;;;;0.40;0.13;;;22.30;60.40;;;;;;5027110;28;20484;-67
2022/07/11 11:20:59;;;;;;;0.10;0.10;;;22.30;59.90;;;;;;5025221;28;20828;-68
2022/07/11 11:23:39;;;;;;;0.10;0.10;;;22.40;60.00;;;;;;5005956;28;20045;-67
2022/07/11 11:26:11;;;;;;;1.05;0.20;;;22.40;60.10;;;;;;5005918;28;20459;-67
2022/07/11 11:28:53;;;;;;;0.57;0.30;;;22.50;59.90;;;;;;5005083;28;20705;-68
2022/07/11 11:31:20;;;;;;;0.38;0.28;;;22.50;59.80;;;;;;5004723;28;20179;-65
2022/07/11 11:33:47;;;;;;;0.25;0.00;;;22.50;59.70;;;;;;5006478;28;20411;-66
2022/07/11 11:36:16;;;;;;;0.10;0.10;;;22.60;59.60;;;;;;5006356;28;20135;-66
2022/07/11 11:38:42;;;;;;;0.17;0.10;;;22.60;59.30;;;;;;5007121;28;20056;-65
2022/07/11 11:41:08;;;;;;;0.10;0.10;;;22.70;59.20;;;;;;5009344;28;20049;-65
2022/07/11 11:43:37;;;;;;;0.22;0.05;;;22.70;59.00;;;;;;5026649;28;20111;-65
2022/07/11 11:46:03;;;;;;;0.25;0.10;;;22.80;59.20;;;;;;5025915;28;20061;-65
2022/07/11 11:48:30;;;;;;;0.70;0.20;;;22.80;58.80;;;;;;5006540;28;20041;-65
2022/07/11 11:51:11;;;;;;;0.30;0.20;;;22.90;58.10;;;;;;5004594;28;20408;-66
2022/07/11 11:53:46;;;;;;;0.00;0.00;;;22.90;58.40;;;;;;5004549;28;20527;-65
2022/07/11 11:56:28;;;;;;;0.38;0.08;;;22.90;58.40;;;;;;5008295;28;20111;-65
2022/07/11 11:59:00;;;;;;;0.47;0.10;;;22.90;58.10;;;;;;5007499;28;20041;-66
2022/07/11 12:01:28;;;;;;;0.73;0.10;;;23.00;58.50;;;;;;4991386;28;20103;-66
2022/07/11 12:03:55;;;;;;;1.35;0.13;;;23.00;58.60;;;;;;4990819;28;20595;-66
2022/07/11 12:06:29;;;;;;;0.15;0.13;;;23.00;58.70;;;;;;5007588;28;20037;-68
2022/07/11 12:09:15;;;;;;;0.43;0.10;;;23.10;58.70;;;;;;5008492;28;20041;-68
2022/07/11 12:11:47;;;;;;;0.80;0.10;;;23.10;58.10;;;;;;5008057;28;20060;-68
2022/07/11 12:14:14;;;;;;;0.10;0.10;;;23.20;58.50;;;;;;5008734;28;20061;-68
2022/07/11 12:16:49;;;;;;;0.75;0.17;;;23.20;58.30;;;;;;5008298;28;20042;-68
2022/07/11 12:19:19;;;;;;;0.40;0.20;;;23.30;58.10;;;;;;5025116;28;20052;-68
2022/07/11 12:21:51;;;;;;;0.20;0.10;;;23.30;57.90;;;;;;4991774;28;20054;-68
2022/07/11 12:24:20;;;;;;;0.65;0.22;;;23.40;57.50;;;;;;5026501;28;20040;-68
2022/07/11 12:26:47;;;;;;;0.68;0.30;;;23.40;57.80;;;;;;5008723;28;20045;-66
2022/07/11 12:29:22;;;;;;;0.50;0.10;;;23.50;58.00;;;;;;5008393;28;20127;-67
2022/07/11 12:31:53;;;;;;;0.30;0.20;;;23.50;57.90;;;;;;5007877;28;20056;-67
2022/07/11 12:34:27;;;;;;;0.40;0.10;;;23.50;57.90;;;;;;5007203;28;20764;-65
2022/07/11 12:37:03;;;;;;;0.20;0.20;;;23.60;57.90;;;;;;4991966;28;20080;-65
2022/07/11 12:39:31;;;;;;;1.10;0.20;;;23.60;57.60;;;;;;4991110;28;20049;-65
2022/07/11 12:41:59;;;;;;;0.38;0.25;;;23.60;57.50;;;;;;5007394;28;20042;-65
2022/07/11 12:47:09;;;;;;;0.20;0.20;;;23.70;57.50;;;;;;5007665;28;20103;-66
2022/07/11 12:49:35;;;;;;;0.70;0.32;;;23.70;57.40;;;;;;5007538;28;20120;-65
2022/07/11 12:52:02;;;;;;;0.40;0.10;;;23.70;57.30;;;;;;5007464;28;20152;-66
2022/07/11 12:54:33;;;;;;;0.55;0.20;;;23.80;57.20;;;;;;5007897;28;20492;-66
2022/07/11 12:57:01;;;;;;;1.05;0.20;;;23.80;57.10;;;;;;5007786;28;20171;-66
2022/07/11 12:59:28;;;;;;;0.30;0.17;;;23.80;57.20;;;;;;5007323;28;20075;-66